This is the latest recevied weather packets stored in our database for station/object KF4ERV-4. If no packets are shown the sender has not sent any weather packets the latest 1 day(s).
| Time | Temp. | Humidity | Pressure | Rain* | Wind** | Luminosity | Snow |
|---|---|---|---|---|---|---|---|
| 1778096196 | 16.67° C | 66% | 1014.9 hPa | 0 mm | - | - | - |
| 1778096067 | 16.67° C | 68% | 1014.9 hPa | 0 mm | - | - | - |
| 1778095746 | 16.67° C | 67% | 1014.2 hPa | 0 mm | - | - | - |
| 1778094892 | 17.22° C | 68% | 1014 hPa | 0 mm | - | - | - |
| 1778094298 | 16.67° C | 70% | 1014 hPa | 0 mm | - | - | - |
| 1778092197 | 17.22° C | 70% | 1014 hPa | 0 mm | - | - | - |
| 1778091975 | 17.22° C | 70% | 1014 hPa | 0 mm | - | - | - |
| 1778091901 | 17.22° C | 70% | 1014 hPa | 0 mm | - | - | - |
| 1778091683 | 17.22° C | 68% | 1014 hPa | 0 mm | - | - | - |
| 1778091000 | 17.22° C | 69% | 1014 hPa | 0 mm | - | - | - |
| 1778089945 | 17.78° C | 70% | 1014 hPa | 0 mm | - | - | - |
| 1778088631 | 17.22° C | 74% | 1014 hPa | 0 mm | - | - | - |
| 1778088155 | 16.67° C | 75% | 1014.5 hPa | 0 mm | - | - | - |
| 1778087953 | 16.67° C | 75% | 1014.5 hPa | 0 mm | - | - | - |
| 1778087914 | 16.67° C | 75% | 1014.5 hPa | 0 mm | - | - | - |
| 1778087730 | 16.67° C | 75% | 1014.5 hPa | 0 mm | - | - | - |
| 1778087571 | 16.67° C | 76% | 1014.9 hPa | 0 mm | - | - | - |
| 1778087401 | 16.67° C | 75% | 1014.5 hPa | 0 mm | - | - | - |
| 1778086795 | 16.67° C | 77% | 1015 hPa | 0 mm | - | - | - |
| 1778086755 | 16.11° C | 78% | 1014.7 hPa | 0 mm | - | - | - |
| 1778086463 | 16.67° C | 78% | 1015 hPa | 0 mm | - | - | - |
| 1778086202 | 16.67° C | 78% | 1015 hPa | 0 mm | - | - | - |
| 1778085595 | 16.11° C | 80% | 1015 hPa | 0 mm | - | - | - |
| 1778085298 | 16.11° C | 83% | 1014.9 hPa | 0 mm | - | - | - |
| 1778083793 | 15° C | 87% | 1015 hPa | 0 mm | - | - | - |
* Rain latest hour (hover to see other rain measurements)
** Current wind speed in m/s (hover to see current wind gust speed)